WetterOnline ( https://www.wetteronline.de )

Wetter aktuell Cuxhaven

Aktuelles Wetter: Cuxhaven (12m)

6-stündlich | Neueste Meldungen
Ortszeit Temperatur Wetter
So, 14.04. 8:00 9.3° C wolkig
So, 14.04. 2:00 12.8° C Sprühregen
Sa, 13.04. 20:00 16.3° C bewölkt
Sa, 13.04. 14:00 16.3° C wolkig
Sa, 13.04. 8:00 12.2° C wolkig
Sa, 13.04. 2:00 10.0° C wolkig
Fr, 12.04. 20:00 11.9° C wolkig
Fr, 12.04. 14:00 16.3° C wolkig
Ortszeit Temperatur Wetter
So, 14.04. 12:40 11.4° C leicht bewölkt
So, 14.04. 12:30 11.5° C leicht bewölkt
So, 14.04. 12:20 11.5° C leicht bewölkt
So, 14.04. 12:10 11.1° C leicht bewölkt
So, 14.04. 12:00 10.8° C wolkig
So, 14.04. 11:50 10.8° C wolkig
So, 14.04. 11:30 10.8° C wolkig
So, 14.04. 11:00 10.5° C leicht bewölkt
So, 14.04. 10:30 10.1° C wolkig
So, 14.04. 10:00 10.4° C leicht bewölkt
Ortszeit Relative Feuchte Sichtweite
So, 14.04. 8:00 70% 30 km
So, 14.04. 2:00 88% 24 km
Sa, 13.04. 20:00 76% 35 km
Sa, 13.04. 14:00 74% 40 km
Sa, 13.04. 8:00 88% 30 km
Sa, 13.04. 2:00 92% 20 km
Fr, 12.04. 20:00 85% 24 km
Fr, 12.04. 14:00 76% 30 km
Ortszeit Relative Feuchte Sichtweite
So, 14.04. 12:40 62% -
So, 14.04. 12:30 59% 35 km
So, 14.04. 12:20 59% -
So, 14.04. 12:10 59% -
So, 14.04. 12:00 64% 35 km
So, 14.04. 11:50 64% -
So, 14.04. 11:30 63% 35 km
So, 14.04. 11:00 65% 40 km
So, 14.04. 10:30 64% 30 km
So, 14.04. 10:00 65% 40 km
Ortszeit Niederschlagsmenge Niederschlagsart
So, 14.04. 8:00 0.1 l/m2 in 12 Std. Regen
So, 14.04. 2:00 0.1 l/m2 in 6 Std. Regen
Sa, 13.04. 20:00 0.0 l/m2 in 12 Std. -
Sa, 13.04. 14:00 0.0 l/m2 in 6 Std. -
Sa, 13.04. 8:00 0.0 l/m2 in 12 Std. -
Sa, 13.04. 2:00 0.0 l/m2 in 6 Std. -
Fr, 12.04. 20:00 0.1 l/m2 in 12 Std. -
Fr, 12.04. 14:00 0.1 l/m2 in 6 Std. Regen
Ortszeit Niederschlagsmenge Niederschlagsart
So, 14.04. 12:40 keine Meldung -
So, 14.04. 12:30 0.0 l/m2 in 30 Min -
So, 14.04. 12:20 keine Meldung -
So, 14.04. 12:10 keine Meldung -
So, 14.04. 12:00 0.0 l/m2 in 1 Std. -
So, 14.04. 11:50 keine Meldung -
So, 14.04. 11:30 0.0 l/m2 in 30 Min -
So, 14.04. 11:00 0.0 l/m2 in 1 Std. -
So, 14.04. 10:30 0.0 l/m2 in 30 Min -
So, 14.04. 10:00 0.0 l/m2 in 1 Std. -
Ortszeit Stärke Spitze Richtung
km/h Bft. km/h Grad Sektor
So, 14.04. 8:00 31 5 50 280° W
So, 14.04. 2:00 24 4 50 250° W
Sa, 13.04. 20:00 7 2 40 220° SW
Sa, 13.04. 14:00 17 3 43 250° W
Sa, 13.04. 8:00 14 3 36 240° SW
Sa, 13.04. 2:00 7 2 36 210° SW
Fr, 12.04. 20:00 22 4 54 280° W
Fr, 12.04. 14:00 24 4 50 240° SW
Ortszeit Stärke Spitze Richtung
km/h Bft. km/h Grad Sektor
So, 14.04. 12:40 35 5 - 270° W
So, 14.04. 12:30 32 5 61 270° W
So, 14.04. 12:20 32 5 - 270° W
So, 14.04. 12:10 39 6 - 270° W
So, 14.04. 12:00 33 5 57 270° W
So, 14.04. 11:50 33 5 - 270° W
So, 14.04. 11:30 31 5 54 270° W
So, 14.04. 11:00 32 5 58 270° W
So, 14.04. 10:30 36 5 58 270° W
So, 14.04. 10:00 31 5 48 270° W
Ortszeit Untergrenze Bedeckung Gattung
total tief tief mittel hoch
So, 14.04. 8:00 720 m 8/8 2/8 - - -
So, 14.04. 2:00 1020 m 8/8 8/8 - - -
Sa, 13.04. 20:00 1170 m 8/8 7/8 - - -
Sa, 13.04. 14:00 540 m 7/8 2/8 - - -
Sa, 13.04. 8:00 8700 m 8/8 0/8 - - -
Sa, 13.04. 2:00 9000 m 8/8 0/8 - - -
Fr, 12.04. 20:00 7200 m 8/8 0/8 - - -
Fr, 12.04. 14:00 480 m 8/8 2/8 - - -
Ortszeit Bedeckungsgrad in Achtel und Wolkenuntergrenze
So, 14.04. 12:40 3
So, 14.04. 12:30 4(870m) 4(1050m)
So, 14.04. 12:20 4(870m) 4(1050m)
So, 14.04. 12:10 4
So, 14.04. 12:00 5(810m) 6(1050m)
So, 14.04. 11:50 5(810m) 6(1050m)
So, 14.04. 11:30 4(810m) 5(1080m)
So, 14.04. 11:00 4(780m)
So, 14.04. 10:30 4(780m) 5(960m)
So, 14.04. 10:00 2(690m)
Ortszeit Luftdruck NN (hPa) Tendenz (hPa in 3 Std.)
So, 14.04. 8:00 1018 + 1,3
So, 14.04. 2:00 1015 + 0,3
Sa, 13.04. 20:00 1016 - 2,8
Sa, 13.04. 14:00 1022 - 1,0
Sa, 13.04. 8:00 1023 - 0,3
Sa, 13.04. 2:00 1024 - 0,9
Fr, 12.04. 20:00 1026 - 0,8
Fr, 12.04. 14:00 1027 - 0,5
Ortszeit Luftdruck NN (hPa) Tendenz (hPa in 3 Std.)
So, 14.04. 12:40 1020 keine Meldung
So, 14.04. 12:30 1020 + 1,4
So, 14.04. 12:20 1020 keine Meldung
So, 14.04. 12:10 1020 keine Meldung
So, 14.04. 12:00 1020 + 1,3
So, 14.04. 11:50 1020 keine Meldung
So, 14.04. 11:30 1020 + 1,3
So, 14.04. 11:00 1020 + 1,3
So, 14.04. 10:30 1020 + 1,5
So, 14.04. 10:00 1019 + 1,3
Ortszeit Schneehöhe (cm)
So, 14.04. 8:00 0
So, 14.04. 2:00 0
Sa, 13.04. 20:00 0
Sa, 13.04. 14:00 0
Sa, 13.04. 8:00 0
Sa, 13.04. 2:00 0
Fr, 12.04. 20:00 0
Fr, 12.04. 14:00 0
Ortszeit Schneehöhe (cm)
So, 14.04. 12:40 -
So, 14.04. 12:30 0
So, 14.04. 12:20 0
So, 14.04. 12:10 -
So, 14.04. 12:00 0
So, 14.04. 11:50 0
So, 14.04. 11:30 0
So, 14.04. 11:00 0
So, 14.04. 10:30 0
So, 14.04. 10:00 0
Link zu dieser Seite / Seite empfehlen

Das Wetter in ...